Time;durP1;ratioP1;P1;durP2;ratioP2;P2;SDS_P1;SDS_P2;PMS_P1;PMS_P2;Temp;Humidity;BMP_temperature;BMP_pressure;BME280_temperature;BME280_humidity;BME280_pressure;Samples;Min_cycle;Max_cycle;Signal;HPM_P1;HPM_P2
2023/07/29 00:01:14;;;;;;;1.33;0.95;;;;;;;;;;5070136;28;20029;-77
2023/07/29 00:03:40;;;;;;;2.42;0.80;;;;;;;;;;5071138;28;20643;-76
2023/07/29 00:06:06;;;;;;;0.60;0.60;;;;;;;;;;5069617;28;20043;-75
2023/07/29 00:08:32;;;;;;;0.98;0.88;;;;;;;;;;5067328;28;20443;-76
2023/07/29 00:10:58;;;;;;;1.45;0.85;;;;;;;;;;5069465;28;20017;-75
2023/07/29 00:13:24;;;;;;;1.50;1.00;;;;;;;;;;5070364;28;20111;-77
2023/07/29 00:15:50;;;;;;;0.60;0.60;;;;;;;;;;5070450;28;20478;-75
2023/07/29 00:18:16;;;;;;;0.70;0.68;;;;;;;;;;5069307;28;20036;-77
2023/07/29 00:20:42;;;;;;;2.15;0.52;;;;;;;;;;5070486;28;20493;-76
2023/07/29 00:23:08;;;;;;;1.10;0.80;;;;;;;;;;5068377;28;20730;-76
2023/07/29 00:25:34;;;;;;;1.40;1.00;;;;;;;;;;5063683;28;20025;-76
2023/07/29 00:28:00;;;;;;;0.82;0.82;;;;;;;;;;5067543;28;20029;-76
2023/07/29 00:30:26;;;;;;;0.50;0.50;;;;;;;;;;5068118;28;20429;-75
2023/07/29 00:32:52;;;;;;;0.93;0.88;;;;;;;;;;5067561;28;20032;-75
2023/07/29 00:35:19;;;;;;;1.10;0.95;;;;;;;;;;5067900;28;20514;-76
2023/07/29 00:37:45;;;;;;;0.88;0.80;;;;;;;;;;5067295;28;20043;-76
2023/07/29 00:40:20;;;;;;;1.00;0.85;;;;;;;;;;5067027;28;20039;-76
2023/07/29 00:42:46;;;;;;;0.80;0.80;;;;;;;;;;5060457;28;20035;-75
2023/07/29 00:45:13;;;;;;;0.75;0.75;;;;;;;;;;5067685;28;20032;-76
2023/07/29 00:47:39;;;;;;;0.70;0.70;;;;;;;;;;5065386;28;20112;-76
2023/07/29 00:50:06;;;;;;;0.90;0.70;;;;;;;;;;5066551;28;20036;-76
2023/07/29 00:52:32;;;;;;;0.80;0.80;;;;;;;;;;5065223;28;20013;-76
2023/07/29 00:54:58;;;;;;;0.60;0.60;;;;;;;;;;5066071;28;20016;-76
2023/07/29 00:57:25;;;;;;;0.98;0.77;;;;;;;;;;5067981;28;20436;-76
2023/07/29 00:59:51;;;;;;;0.75;0.70;;;;;;;;;;5064984;28;20029;-76
2023/07/29 01:02:17;;;;;;;1.00;0.70;;;;;;;;;;5066444;28;20077;-76
2023/07/29 01:04:43;;;;;;;0.65;0.65;;;;;;;;;;5068234;28;20496;-76
2023/07/29 01:07:18;;;;;;;1.38;0.82;;;;;;;;;;5067692;28;20033;-76
2023/07/29 01:09:51;;;;;;;0.85;0.60;;;;;;;;;;5068961;28;20024;-76
2023/07/29 01:12:36;;;;;;;0.75;0.75;;;;;;;;;;5062614;28;20062;-77
2023/07/29 01:15:08;;;;;;;0.70;0.70;;;;;;;;;;5065178;28;20590;-76
2023/07/29 01:17:36;;;;;;;1.08;0.95;;;;;;;;;;5069951;28;20071;-76
2023/07/29 01:20:08;;;;;;;1.65;0.98;;;;;;;;;;5069261;28;20033;-76
2023/07/29 01:22:35;;;;;;;0.80;0.70;;;;;;;;;;5067778;28;20052;-77
2023/07/29 01:25:01;;;;;;;1.17;0.60;;;;;;;;;;5067163;28;20503;-76
2023/07/29 01:27:27;;;;;;;0.50;0.50;;;;;;;;;;5065312;28;20025;-76
2023/07/29 01:29:54;;;;;;;0.80;0.80;;;;;;;;;;5066859;28;20051;-76
2023/07/29 01:32:40;;;;;;;0.77;0.70;;;;;;;;;;5062950;28;20025;-77
2023/07/29 01:35:18;;;;;;;1.15;0.63;;;;;;;;;;5064336;28;20081;-76
2023/07/29 01:37:45;;;;;;;0.68;0.68;;;;;;;;;;5066927;28;20028;-76
2023/07/29 01:40:11;;;;;;;0.98;0.85;;;;;;;;;;5066536;28;20028;-76
2023/07/29 01:42:37;;;;;;;0.63;0.63;;;;;;;;;;5065757;28;20032;-76
2023/07/29 01:45:04;;;;;;;0.80;0.80;;;;;;;;;;5070560;28;20179;-76
2023/07/29 01:47:31;;;;;;;0.82;0.80;;;;;;;;;;5068455;28;20029;-76
2023/07/29 01:49:57;;;;;;;1.45;0.70;;;;;;;;;;5061214;28;20021;-76
2023/07/29 01:52:23;;;;;;;0.65;0.65;;;;;;;;;;5067749;28;20036;-75
2023/07/29 01:54:48;;;;;;;0.82;0.80;;;;;;;;;;5064566;28;20066;-76
2023/07/29 01:57:14;;;;;;;1.05;0.70;;;;;;;;;;5067214;28;20021;-76
2023/07/29 01:59:40;;;;;;;2.35;0.90;;;;;;;;;;5064580;28;20024;-76
2023/07/29 02:02:06;;;;;;;1.20;1.10;;;;;;;;;;5065167;28;20483;-76
2023/07/29 02:04:32;;;;;;;0.88;0.80;;;;;;;;;;5067569;28;20036;-76
2023/07/29 02:06:58;;;;;;;0.63;0.63;;;;;;;;;;5061821;28;20039;-76
2023/07/29 02:09:25;;;;;;;0.50;0.50;;;;;;;;;;5072416;28;20095;-76
2023/07/29 02:11:51;;;;;;;0.75;0.68;;;;;;;;;;5066578;28;20127;-76
2023/07/29 02:14:17;;;;;;;0.75;0.70;;;;;;;;;;5069699;28;20039;-76
2023/07/29 02:16:43;;;;;;;1.10;1.00;;;;;;;;;;5065953;28;20610;-77
2023/07/29 02:19:09;;;;;;;1.77;0.75;;;;;;;;;;5065595;28;20103;-76
2023/07/29 02:21:35;;;;;;;0.60;0.60;;;;;;;;;;5065236;28;20697;-76
2023/07/29 02:24:01;;;;;;;0.90;0.80;;;;;;;;;;5066530;28;20041;-76
2023/07/29 02:26:27;;;;;;;1.10;0.70;;;;;;;;;;5062389;28;20025;-76
2023/07/29 02:28:53;;;;;;;0.70;0.70;;;;;;;;;;5064621;28;20040;-76
2023/07/29 02:31:23;;;;;;;1.10;1.00;;;;;;;;;;5067419;28;20036;-76
2023/07/29 02:33:49;;;;;;;1.08;0.98;;;;;;;;;;5065449;28;20029;-76
2023/07/29 02:36:15;;;;;;;0.70;0.70;;;;;;;;;;5065806;28;20028;-76
2023/07/29 02:38:41;;;;;;;1.02;0.93;;;;;;;;;;5065966;28;20027;-76
2023/07/29 02:41:09;;;;;;;0.70;0.70;;;;;;;;;;5063650;28;20021;-77
2023/07/29 02:43:35;;;;;;;4.82;1.10;;;;;;;;;;5059915;28;20479;-77
2023/07/29 02:46:01;;;;;;;1.10;1.00;;;;;;;;;;5065292;28;20044;-76
2023/07/29 02:48:28;;;;;;;0.98;0.70;;;;;;;;;;5064994;28;20044;-76
2023/07/29 02:50:54;;;;;;;1.23;0.77;;;;;;;;;;5062428;28;20016;-76
2023/07/29 02:53:20;;;;;;;0.80;0.80;;;;;;;;;;5065917;28;20084;-76
2023/07/29 02:55:46;;;;;;;0.73;0.73;;;;;;;;;;5066586;28;20028;-76
2023/07/29 02:58:12;;;;;;;0.93;0.70;;;;;;;;;;5068577;28;20040;-76
2023/07/29 03:00:41;;;;;;;1.00;0.73;;;;;;;;;;5066928;28;20027;-76
2023/07/29 03:03:07;;;;;;;0.93;0.73;;;;;;;;;;5069925;28;20031;-76
2023/07/29 03:05:33;;;;;;;0.75;0.70;;;;;;;;;;5069499;28;20379;-76
2023/07/29 03:07:59;;;;;;;0.82;0.82;;;;;;;;;;5064591;28;20032;-76
2023/07/29 03:10:25;;;;;;;0.70;0.70;;;;;;;;;;5070301;28;20028;-76
2023/07/29 03:12:51;;;;;;;0.68;0.68;;;;;;;;;;5069306;28;20032;-76
2023/07/29 03:15:17;;;;;;;1.80;0.80;;;;;;;;;;5069001;28;20487;-76
2023/07/29 03:17:43;;;;;;;0.70;0.70;;;;;;;;;;5066360;28;20063;-76
2023/07/29 03:20:09;;;;;;;0.85;0.55;;;;;;;;;;5068445;28;20033;-77
2023/07/29 03:22:36;;;;;;;0.60;0.60;;;;;;;;;;5070991;28;20498;-76
2023/07/29 03:25:02;;;;;;;0.70;0.70;;;;;;;;;;5068687;28;20098;-76
2023/07/29 03:27:27;;;;;;;1.25;0.73;;;;;;;;;;5069175;28;20375;-76
2023/07/29 03:29:53;;;;;;;1.13;1.00;;;;;;;;;;5070744;28;20040;-76
2023/07/29 03:32:19;;;;;;;0.70;0.70;;;;;;;;;;5065380;28;20020;-76
2023/07/29 03:34:45;;;;;;;1.33;0.90;;;;;;;;;;5070046;28;20033;-76
2023/07/29 03:37:11;;;;;;;0.70;0.70;;;;;;;;;;5068527;28;20033;-76
2023/07/29 03:39:37;;;;;;;0.90;0.90;;;;;;;;;;5069910;28;20033;-76
2023/07/29 03:42:03;;;;;;;0.98;0.80;;;;;;;;;;5066211;28;20033;-76
2023/07/29 03:44:31;;;;;;;2.20;0.75;;;;;;;;;;5058305;28;20028;-76
2023/07/29 03:46:56;;;;;;;0.90;0.57;;;;;;;;;;5059629;28;20112;-76
2023/07/29 03:49:22;;;;;;;0.77;0.70;;;;;;;;;;5066476;28;21135;-76
2023/07/29 03:51:48;;;;;;;1.30;1.00;;;;;;;;;;5067909;28;20109;-76
2023/07/29 03:54:14;;;;;;;1.15;0.85;;;;;;;;;;5067823;28;20028;-77
2023/07/29 03:56:41;;;;;;;0.70;0.70;;;;;;;;;;5067801;28;20021;-76
2023/07/29 03:59:07;;;;;;;0.85;0.85;;;;;;;;;;5067637;28;20040;-77
2023/07/29 04:01:32;;;;;;;0.55;0.55;;;;;;;;;;5068939;28;20032;-76
2023/07/29 04:03:59;;;;;;;0.60;0.60;;;;;;;;;;5064020;28;20089;-76
2023/07/29 04:06:25;;;;;;;0.73;0.70;;;;;;;;;;5072656;28;20028;-76
2023/07/29 04:08:51;;;;;;;1.05;0.95;;;;;;;;;;5072818;28;20434;-75
2023/07/29 04:11:17;;;;;;;0.82;0.80;;;;;;;;;;5079176;28;20020;-76
2023/07/29 04:13:43;;;;;;;0.63;0.63;;;;;;;;;;5069106;28;20024;-76
2023/07/29 04:16:09;;;;;;;0.88;0.70;;;;;;;;;;5063953;28;20020;-76
2023/07/29 04:18:35;;;;;;;0.70;0.70;;;;;;;;;;5069593;28;20020;-76
2023/07/29 04:21:01;;;;;;;1.60;0.82;;;;;;;;;;5065816;28;20823;-76
2023/07/29 04:23:27;;;;;;;0.95;0.68;;;;;;;;;;5069634;28;20060;-76
2023/07/29 04:25:53;;;;;;;0.63;0.63;;;;;;;;;;5069872;28;20364;-76
2023/07/29 04:28:19;;;;;;;1.50;0.70;;;;;;;;;;5070345;28;20429;-76
2023/07/29 04:30:45;;;;;;;1.23;0.70;;;;;;;;;;5070781;28;20025;-76
2023/07/29 04:33:11;;;;;;;0.85;0.82;;;;;;;;;;5069200;28;20025;-76
2023/07/29 04:35:37;;;;;;;1.00;0.90;;;;;;;;;;5069412;28;20028;-76
2023/07/29 04:38:03;;;;;;;0.82;0.82;;;;;;;;;;5070514;28;20036;-76
2023/07/29 04:40:29;;;;;;;0.65;0.60;;;;;;;;;;5063999;28;20028;-76
2023/07/29 04:42:55;;;;;;;2.35;0.80;;;;;;;;;;5068316;28;20025;-77
2023/07/29 04:45:21;;;;;;;1.17;0.70;;;;;;;;;;5070217;28;20454;-76
2023/07/29 04:47:47;;;;;;;1.48;0.90;;;;;;;;;;5069768;28;20025;-76
2023/07/29 04:50:12;;;;;;;1.10;0.82;;;;;;;;;;5070000;28;20111;-76
2023/07/29 04:52:38;;;;;;;0.52;0.52;;;;;;;;;;5062626;28;20040;-76
2023/07/29 04:55:04;;;;;;;1.10;1.00;;;;;;;;;;5066426;28;20028;-76
2023/07/29 04:57:30;;;;;;;0.73;0.73;;;;;;;;;;5064081;28;20043;-76
2023/07/29 04:59:56;;;;;;;0.75;0.75;;;;;;;;;;5066726;28;20024;-76
2023/07/29 05:02:22;;;;;;;0.80;0.63;;;;;;;;;;5067013;28;20036;-76
2023/07/29 05:04:48;;;;;;;0.73;0.60;;;;;;;;;;5079040;28;20032;-76
2023/07/29 05:07:14;;;;;;;3.40;0.70;;;;;;;;;;5067601;28;20024;-76
2023/07/29 05:09:40;;;;;;;1.67;1.10;;;;;;;;;;5062998;28;20515;-76
2023/07/29 05:12:06;;;;;;;1.23;0.98;;;;;;;;;;5067754;28;20490;-76
2023/07/29 05:14:32;;;;;;;0.93;0.70;;;;;;;;;;5065240;28;20479;-76
2023/07/29 05:16:58;;;;;;;0.98;0.88;;;;;;;;;;5066448;28;20113;-76
2023/07/29 05:19:24;;;;;;;0.95;0.93;;;;;;;;;;5067063;28;20028;-76
2023/07/29 05:21:50;;;;;;;1.80;1.00;;;;;;;;;;5066581;28;20035;-76
2023/07/29 05:24:16;;;;;;;1.05;0.82;;;;;;;;;;5066157;28;20041;-76
2023/07/29 05:26:42;;;;;;;1.52;0.95;;;;;;;;;;5060033;28;20028;-76
2023/07/29 05:29:08;;;;;;;0.98;0.90;;;;;;;;;;5067639;28;20067;-76
2023/07/29 05:31:34;;;;;;;1.13;0.90;;;;;;;;;;5066720;28;20029;-76
2023/07/29 05:34:00;;;;;;;0.90;0.80;;;;;;;;;;5065237;28;20027;-77
2023/07/29 05:36:26;;;;;;;1.33;1.00;;;;;;;;;;5065392;28;20029;-76
2023/07/29 05:38:52;;;;;;;1.13;1.00;;;;;;;;;;5067275;28;20032;-76
2023/07/29 05:41:18;;;;;;;1.27;1.08;;;;;;;;;;5063783;28;20025;-76
2023/07/29 05:43:45;;;;;;;0.70;0.70;;;;;;;;;;5063799;28;20115;-76
2023/07/29 05:46:11;;;;;;;0.70;0.63;;;;;;;;;;5069095;28;20098;-76
2023/07/29 05:48:37;;;;;;;1.25;0.95;;;;;;;;;;5066696;28;20093;-76
2023/07/29 05:51:05;;;;;;;0.80;0.70;;;;;;;;;;5069260;28;20020;-76
2023/07/29 05:53:31;;;;;;;1.15;0.80;;;;;;;;;;5065547;28;20049;-76
2023/07/29 05:55:56;;;;;;;0.80;0.80;;;;;;;;;;5064735;28;20035;-76
2023/07/29 05:58:22;;;;;;;0.70;0.70;;;;;;;;;;5065104;28;20078;-76
2023/07/29 06:00:49;;;;;;;0.77;0.77;;;;;;;;;;5062933;28;20028;-76
2023/07/29 06:03:15;;;;;;;1.00;0.90;;;;;;;;;;5066126;28;20391;-76
2023/07/29 06:05:41;;;;;;;0.70;0.70;;;;;;;;;;5066351;28;20063;-76
2023/07/29 06:08:08;;;;;;;0.80;0.80;;;;;;;;;;5062126;28;20037;-77
2023/07/29 06:10:34;;;;;;;0.65;0.65;;;;;;;;;;5063489;28;20495;-76
2023/07/29 06:13:00;;;;;;;0.70;0.70;;;;;;;;;;5067896;28;20032;-76
2023/07/29 06:15:26;;;;;;;1.52;0.93;;;;;;;;;;5061632;28;20028;-77
2023/07/29 06:17:52;;;;;;;1.77;0.85;;;;;;;;;;5064895;28;20024;-76
2023/07/29 06:20:18;;;;;;;0.80;0.68;;;;;;;;;;5065990;28;20028;-76
2023/07/29 06:22:44;;;;;;;0.75;0.70;;;;;;;;;;5058430;28;20029;-76
2023/07/29 06:25:10;;;;;;;1.23;1.00;;;;;;;;;;5065807;28;20391;-76
2023/07/29 06:27:36;;;;;;;0.80;0.80;;;;;;;;;;5068005;28;20027;-76
2023/07/29 06:30:02;;;;;;;0.98;0.90;;;;;;;;;;5067341;28;20040;-76
2023/07/29 06:32:28;;;;;;;0.80;0.80;;;;;;;;;;5066925;28;20112;-76
2023/07/29 06:34:54;;;;;;;0.98;0.85;;;;;;;;;;5068331;28;20028;-76
2023/07/29 06:37:20;;;;;;;0.88;0.70;;;;;;;;;;5068122;28;20020;-76
2023/07/29 06:39:46;;;;;;;1.23;0.90;;;;;;;;;;5067705;28;20123;-76
2023/07/29 06:42:12;;;;;;;0.70;0.70;;;;;;;;;;5063953;28;20805;-76
2023/07/29 06:44:38;;;;;;;1.58;0.70;;;;;;;;;;5067920;28;20044;-77
2023/07/29 06:47:05;;;;;;;1.00;0.80;;;;;;;;;;5067786;28;20055;-76
2023/07/29 06:49:30;;;;;;;1.08;0.82;;;;;;;;;;5066303;28;20028;-76
2023/07/29 06:51:56;;;;;;;0.90;0.85;;;;;;;;;;5068017;28;20031;-76
2023/07/29 06:54:28;;;;;;;0.90;0.90;;;;;;;;;;5061980;28;20032;-76
2023/07/29 06:56:57;;;;;;;0.68;0.68;;;;;;;;;;5066698;28;20055;-76
2023/07/29 06:59:24;;;;;;;0.77;0.77;;;;;;;;;;5057148;28;20035;-76
2023/07/29 07:01:50;;;;;;;0.60;0.60;;;;;;;;;;5067252;28;20027;-76
2023/07/29 07:04:16;;;;;;;1.25;1.00;;;;;;;;;;5067359;28;20390;-76
2023/07/29 07:06:42;;;;;;;1.70;0.82;;;;;;;;;;5065871;28;20028;-76
2023/07/29 07:09:08;;;;;;;1.10;1.00;;;;;;;;;;5068049;28;20024;-76
2023/07/29 07:11:34;;;;;;;0.80;0.80;;;;;;;;;;5068692;28;20039;-76
2023/07/29 07:14:00;;;;;;;0.90;0.90;;;;;;;;;;5067341;28;20078;-76
2023/07/29 07:16:29;;;;;;;1.25;0.82;;;;;;;;;;5067758;28;20037;-76
2023/07/29 07:18:55;;;;;;;1.40;0.90;;;;;;;;;;5059676;28;20078;-75
2023/07/29 07:21:21;;;;;;;1.15;0.93;;;;;;;;;;5067978;28;20024;-75
2023/07/29 07:23:47;;;;;;;0.80;0.80;;;;;;;;;;5067095;28;20016;-75
2023/07/29 07:26:13;;;;;;;1.55;1.10;;;;;;;;;;5068549;28;20036;-75
2023/07/29 07:28:38;;;;;;;1.23;1.05;;;;;;;;;;5067369;28;20150;-75
2023/07/29 07:31:04;;;;;;;0.93;0.85;;;;;;;;;;5063904;28;20094;-75
2023/07/29 07:33:30;;;;;;;1.17;0.73;;;;;;;;;;5064203;28;20034;-75
2023/07/29 07:35:56;;;;;;;1.52;1.30;;;;;;;;;;5061942;28;20029;-76
2023/07/29 07:38:22;;;;;;;1.13;1.00;;;;;;;;;;5066368;28;20043;-76
2023/07/29 07:40:55;;;;;;;1.10;0.90;;;;;;;;;;5062247;28;20024;-78
2023/07/29 07:43:21;;;;;;;1.35;0.95;;;;;;;;;;5070013;28;20036;-76
2023/07/29 07:45:47;;;;;;;0.70;0.70;;;;;;;;;;5070431;28;20047;-76
2023/07/29 07:48:13;;;;;;;0.68;0.68;;;;;;;;;;5071685;28;20395;-77
2023/07/29 07:50:39;;;;;;;1.50;1.10;;;;;;;;;;5070867;28;20029;-75
2023/07/29 07:53:05;;;;;;;1.23;1.13;;;;;;;;;;5071404;28;20056;-76
2023/07/29 07:55:31;;;;;;;1.55;1.25;;;;;;;;;;5070236;28;20107;-76
2023/07/29 07:57:57;;;;;;;1.42;1.20;;;;;;;;;;5065448;28;20024;-75
2023/07/29 08:00:23;;;;;;;1.50;1.30;;;;;;;;;;5066304;28;20032;-76
2023/07/29 08:02:49;;;;;;;1.55;0.95;;;;;;;;;;5071982;28;20032;-76
2023/07/29 08:05:15;;;;;;;1.20;1.10;;;;;;;;;;5071923;28;20431;-77
2023/07/29 08:07:41;;;;;;;1.33;1.23;;;;;;;;;;5068494;28;20043;-76
2023/07/29 08:10:07;;;;;;;2.10;1.70;;;;;;;;;;5076359;28;20025;-77
2023/07/29 08:12:33;;;;;;;1.65;1.38;;;;;;;;;;5087353;28;20042;-76
2023/07/29 08:14:59;;;;;;;1.45;1.30;;;;;;;;;;5071357;28;20048;-76
2023/07/29 08:17:25;;;;;;;1.20;1.10;;;;;;;;;;5062261;28;20036;-78
2023/07/29 08:19:51;;;;;;;1.20;1.10;;;;;;;;;;5064157;28;20028;-77
2023/07/29 08:22:20;;;;;;;0.88;0.88;;;;;;;;;;5069740;28;20024;-77
2023/07/29 08:24:46;;;;;;;1.42;1.27;;;;;;;;;;5071765;28;20028;-76
2023/07/29 08:27:12;;;;;;;1.85;1.05;;;;;;;;;;5071678;28;20025;-75
2023/07/29 08:29:38;;;;;;;1.55;1.35;;;;;;;;;;5068020;28;20051;-76
2023/07/29 08:32:04;;;;;;;1.63;1.20;;;;;;;;;;5070097;28;20052;-73
2023/07/29 08:34:30;;;;;;;1.60;1.25;;;;;;;;;;5068972;28;20059;-74
2023/07/29 08:36:56;;;;;;;1.48;1.38;;;;;;;;;;5070392;28;20572;-75
2023/07/29 08:39:22;;;;;;;1.73;1.58;;;;;;;;;;5067082;28;20515;-75
2023/07/29 08:41:48;;;;;;;1.85;1.60;;;;;;;;;;5071339;28;20031;-75
2023/07/29 08:44:26;;;;;;;2.40;1.60;;;;;;;;;;5070287;28;20032;-75
2023/07/29 08:46:53;;;;;;;3.35;1.70;;;;;;;;;;5070507;28;20391;-76
2023/07/29 08:49:20;;;;;;;2.00;1.70;;;;;;;;;;5071155;28;20040;-76
2023/07/29 08:51:48;;;;;;;2.25;2.00;;;;;;;;;;5071788;28;20044;-75
2023/07/29 08:54:14;;;;;;;5.18;2.08;;;;;;;;;;5069919;28;20046;-75
2023/07/29 08:56:41;;;;;;;2.17;1.85;;;;;;;;;;5066105;28;20032;-75
2023/07/29 08:59:08;;;;;;;2.30;1.75;;;;;;;;;;5072252;28;20032;-75
2023/07/29 09:01:34;;;;;;;2.55;1.60;;;;;;;;;;5060524;28;20033;-75
2023/07/29 09:04:00;;;;;;;2.08;1.55;;;;;;;;;;5070384;28;20025;-75
2023/07/29 09:06:27;;;;;;;2.20;1.90;;;;;;;;;;5063716;28;20020;-75
2023/07/29 09:08:56;;;;;;;2.88;2.05;;;;;;;;;;5068855;28;20113;-75
2023/07/29 09:11:22;;;;;;;1.83;1.50;;;;;;;;;;5069597;28;20089;-76
2023/07/29 09:13:48;;;;;;;1.90;1.67;;;;;;;;;;5072552;28;20070;-75
2023/07/29 09:16:14;;;;;;;2.22;1.73;;;;;;;;;;5069161;28;20028;-75
2023/07/29 09:18:40;;;;;;;2.13;1.75;;;;;;;;;;5069629;28;20032;-76
2023/07/29 09:21:06;;;;;;;1.90;1.60;;;;;;;;;;5063327;28;20091;-75
2023/07/29 09:23:40;;;;;;;2.63;1.58;;;;;;;;;;5074436;28;20035;-75
2023/07/29 09:26:06;;;;;;;1.98;1.60;;;;;;;;;;5067506;28;20064;-75
2023/07/29 09:28:36;;;;;;;1.63;1.48;;;;;;;;;;5067641;28;20614;-84
2023/07/29 09:31:02;;;;;;;1.17;1.10;;;;;;;;;;5068512;28;20103;-77
2023/07/29 09:33:29;;;;;;;3.33;1.85;;;;;;;;;;5062865;28;20024;-76
2023/07/29 09:35:55;;;;;;;1.92;1.70;;;;;;;;;;5059113;28;20043;-76
2023/07/29 09:38:27;;;;;;;2.97;1.60;;;;;;;;;;5071645;28;20052;-78
2023/07/29 09:40:55;;;;;;;2.85;1.42;;;;;;;;;;5068587;28;20024;-76
2023/07/29 09:43:25;;;;;;;1.45;1.35;;;;;;;;;;5070157;28;20028;-75
2023/07/29 09:45:52;;;;;;;1.90;1.58;;;;;;;;;;5069789;28;20028;-77
2023/07/29 09:48:22;;;;;;;2.88;1.70;;;;;;;;;;5070576;28;20024;-76
2023/07/29 09:50:48;;;;;;;1.40;1.17;;;;;;;;;;5070758;28;20054;-76
2023/07/29 09:53:14;;;;;;;2.35;1.55;;;;;;;;;;5064795;28;20498;-76
2023/07/29 09:55:46;;;;;;;1.92;1.35;;;;;;;;;;5070423;28;20071;-77
2023/07/29 09:58:12;;;;;;;1.88;1.45;;;;;;;;;;5068429;28;20036;-78
2023/07/29 10:00:39;;;;;;;1.30;1.20;;;;;;;;;;5068932;28;20039;-77
2023/07/29 10:03:07;;;;;;;2.47;1.17;;;;;;;;;;5068569;28;20028;-78
2023/07/29 10:05:35;;;;;;;1.95;1.40;;;;;;;;;;5067306;28;20029;-78
2023/07/29 10:08:01;;;;;;;2.10;1.55;;;;;;;;;;5069430;28;20483;-78
2023/07/29 10:10:28;;;;;;;1.73;1.50;;;;;;;;;;5063715;28;20120;-78
2023/07/29 10:12:58;;;;;;;2.53;1.42;;;;;;;;;;5050861;28;20430;-78
2023/07/29 10:15:24;;;;;;;2.03;1.58;;;;;;;;;;5070642;28;20540;-76
2023/07/29 10:17:50;;;;;;;1.45;1.35;;;;;;;;;;5069992;28;20032;-77
2023/07/29 10:20:28;;;;;;;2.00;1.42;;;;;;;;;;5068794;28;20509;-76
2023/07/29 10:22:55;;;;;;;1.52;1.27;;;;;;;;;;5069264;28;20028;-76
2023/07/29 10:25:25;;;;;;;2.35;1.80;;;;;;;;;;5072041;28;20036;-77
2023/07/29 10:27:56;;;;;;;1.38;1.27;;;;;;;;;;5054524;28;20040;-75
2023/07/29 10:30:25;;;;;;;1.80;1.35;;;;;;;;;;5067893;28;20045;-75
2023/07/29 10:32:52;;;;;;;1.77;1.60;;;;;;;;;;5068965;28;20032;-75
2023/07/29 10:35:18;;;;;;;1.30;1.20;;;;;;;;;;5068381;28;20080;-75
2023/07/29 10:37:45;;;;;;;1.02;1.00;;;;;;;;;;5047319;28;20584;-75
2023/07/29 10:40:15;;;;;;;1.50;1.25;;;;;;;;;;5065202;28;20024;-75
2023/07/29 10:42:59;;;;;;;2.35;1.52;;;;;;;;;;5060837;28;20147;-76
2023/07/29 10:45:25;;;;;;;1.85;1.45;;;;;;;;;;5062082;28;20059;-75
2023/07/29 10:47:51;;;;;;;1.90;1.73;;;;;;;;;;5067958;28;22020;-75
2023/07/29 10:50:19;;;;;;;2.00;1.33;;;;;;;;;;5066376;28;20024;-76
2023/07/29 10:52:48;;;;;;;1.65;1.35;;;;;;;;;;5068348;28;20101;-76
2023/07/29 10:55:25;;;;;;;1.73;1.30;;;;;;;;;;5066664;28;20028;-77
2023/07/29 10:57:51;;;;;;;1.92;1.63;;;;;;;;;;5067211;28;20031;-75
2023/07/29 11:00:20;;;;;;;1.88;1.35;;;;;;;;;;5062742;28;20527;-75
2023/07/29 11:02:57;;;;;;;1.30;1.20;;;;;;;;;;5065747;28;20033;-77
2023/07/29 11:05:23;;;;;;;1.55;1.20;;;;;;;;;;5063031;28;20113;-76
2023/07/29 11:07:49;;;;;;;1.40;1.30;;;;;;;;;;5067971;28;20040;-76
2023/07/29 11:10:15;;;;;;;1.48;1.38;;;;;;;;;;5068537;28;20031;-76
2023/07/29 11:12:51;;;;;;;1.85;1.30;;;;;;;;;;5067818;28;20034;-76
2023/07/29 11:15:17;;;;;;;1.83;1.50;;;;;;;;;;5069689;28;20029;-77
2023/07/29 11:17:45;;;;;;;3.85;1.23;;;;;;;;;;5071699;28;20036;-76
2023/07/29 11:20:12;;;;;;;4.90;1.60;;;;;;;;;;5072500;28;20071;-76
2023/07/29 11:22:38;;;;;;;1.33;1.15;;;;;;;;;;5083476;28;20043;-78
2023/07/29 11:25:07;;;;;;;3.80;1.40;;;;;;;;;;5073468;28;20119;-80
2023/07/29 11:27:33;;;;;;;1.42;1.23;;;;;;;;;;5063233;28;20041;-80
2023/07/29 11:30:00;;;;;;;1.27;1.15;;;;;;;;;;5063204;28;20059;-80
2023/07/29 11:32:26;;;;;;;1.38;1.10;;;;;;;;;;5079778;28;20446;-80
2023/07/29 11:34:52;;;;;;;0.85;0.85;;;;;;;;;;5072530;28;20028;-81
2023/07/29 11:37:20;;;;;;;1.67;1.25;;;;;;;;;;5072146;28;20048;-80
2023/07/29 11:39:46;;;;;;;1.25;1.08;;;;;;;;;;5071524;28;20037;-77
2023/07/29 11:42:12;;;;;;;1.75;1.38;;;;;;;;;;5070960;28;20409;-78
2023/07/29 11:44:38;;;;;;;3.15;1.15;;;;;;;;;;5071684;28;20020;-78
2023/07/29 11:47:08;;;;;;;1.15;0.80;;;;;;;;;;5071738;28;20028;-78
2023/07/29 11:49:35;;;;;;;0.98;0.90;;;;;;;;;;5067629;28;20036;-77
2023/07/29 11:52:01;;;;;;;3.22;1.15;;;;;;;;;;5070636;28;20035;-77
2023/07/29 11:54:27;;;;;;;0.85;0.80;;;;;;;;;;5070805;28;20039;-77
2023/07/29 11:56:53;;;;;;;1.10;0.75;;;;;;;;;;5071526;28;20394;-77
2023/07/29 11:59:20;;;;;;;1.00;0.90;;;;;;;;;;5071575;28;20024;-78
2023/07/29 12:01:46;;;;;;;1.05;0.63;;;;;;;;;;5071259;28;20089;-77
2023/07/29 12:04:12;;;;;;;2.40;1.08;;;;;;;;;;5078043;28;20036;-77
2023/07/29 12:06:39;;;;;;;2.20;0.98;;;;;;;;;;5069943;28;20111;-77
2023/07/29 12:09:05;;;;;;;1.38;0.98;;;;;;;;;;5066144;28;20025;-77
2023/07/29 12:11:31;;;;;;;1.35;1.25;;;;;;;;;;5071284;28;20043;-76
2023/07/29 12:13:57;;;;;;;0.75;0.68;;;;;;;;;;5070545;28;20032;-76
2023/07/29 12:16:23;;;;;;;0.93;0.82;;;;;;;;;;5068526;28;20250;-77
2023/07/29 12:18:50;;;;;;;1.27;0.80;;;;;;;;;;5066215;28;20032;-77
2023/07/29 12:21:16;;;;;;;0.90;0.73;;;;;;;;;;5071314;28;20039;-76
2023/07/29 12:23:42;;;;;;;0.85;0.85;;;;;;;;;;5071022;28;20116;-77
2023/07/29 12:26:08;;;;;;;0.82;0.82;;;;;;;;;;5073027;28;20119;-76
2023/07/29 12:28:34;;;;;;;0.70;0.70;;;;;;;;;;5066508;28;20045;-77
2023/07/29 12:31:00;;;;;;;0.70;0.70;;;;;;;;;;5069923;28;20024;-77
2023/07/29 12:33:32;;;;;;;1.02;0.70;;;;;;;;;;5070919;28;20024;-77
2023/07/29 12:35:58;;;;;;;1.33;0.70;;;;;;;;;;5069200;28;20030;-77
2023/07/29 12:38:26;;;;;;;1.27;0.77;;;;;;;;;;5081543;28;20681;-77
2023/07/29 12:40:52;;;;;;;0.95;0.85;;;;;;;;;;5065826;28;20622;-77
2023/07/29 12:43:18;;;;;;;0.63;0.63;;;;;;;;;;5070726;28;20150;-78
2023/07/29 12:45:44;;;;;;;1.27;0.82;;;;;;;;;;5070556;28;20176;-77
2023/07/29 12:48:10;;;;;;;9.07;1.92;;;;;;;;;;5063612;28;20036;-77
2023/07/29 12:50:36;;;;;;;1.45;0.70;;;;;;;;;;5073705;28;20066;-79
2023/07/29 12:53:03;;;;;;;0.68;0.60;;;;;;;;;;5067852;28;20025;-77
2023/07/29 12:55:28;;;;;;;0.63;0.60;;;;;;;;;;5063094;28;20020;-79
2023/07/29 12:57:54;;;;;;;0.82;0.80;;;;;;;;;;5062208;28;20040;-75
2023/07/29 13:00:20;;;;;;;0.57;0.57;;;;;;;;;;5069604;28;20035;-75
2023/07/29 13:02:46;;;;;;;1.17;0.65;;;;;;;;;;5062198;28;20037;-75
2023/07/29 13:05:13;;;;;;;0.80;0.80;;;;;;;;;;5068777;28;20032;-75
2023/07/29 13:07:42;;;;;;;2.22;1.00;;;;;;;;;;5066984;28;20044;-76
2023/07/29 13:10:09;;;;;;;1.70;0.90;;;;;;;;;;5070272;28;20035;-78
2023/07/29 13:12:35;;;;;;;0.85;0.65;;;;;;;;;;5069159;28;20017;-76
2023/07/29 13:15:01;;;;;;;2.08;0.90;;;;;;;;;;5066247;28;20029;-77
2023/07/29 13:17:27;;;;;;;0.80;0.80;;;;;;;;;;5067835;28;20029;-81
2023/07/29 13:19:53;;;;;;;3.15;1.77;;;;;;;;;;5062573;28;20031;-77
2023/07/29 13:22:20;;;;;;;3.13;1.58;;;;;;;;;;5066676;28;20074;-75
2023/07/29 13:24:46;;;;;;;1.42;1.17;;;;;;;;;;5065317;28;20082;-76
2023/07/29 13:27:12;;;;;;;1.67;1.58;;;;;;;;;;5075412;28;20047;-75
2023/07/29 13:29:38;;;;;;;2.00;1.15;;;;;;;;;;5071972;28;20444;-75
2023/07/29 13:32:04;;;;;;;1.60;1.50;;;;;;;;;;5069267;28;20025;-76
2023/07/29 13:34:30;;;;;;;2.67;1.90;;;;;;;;;;5069669;28;20021;-75
2023/07/29 13:36:56;;;;;;;1.98;1.45;;;;;;;;;;5066111;28;20031;-75
2023/07/29 13:39:22;;;;;;;2.75;1.80;;;;;;;;;;5068810;28;20287;-75
2023/07/29 13:41:48;;;;;;;2.45;1.92;;;;;;;;;;5072184;28;20445;-75
2023/07/29 13:44:16;;;;;;;1.92;1.73;;;;;;;;;;5071136;28;20743;-76
2023/07/29 13:46:42;;;;;;;4.07;2.13;;;;;;;;;;5070301;28;20032;-75
2023/07/29 13:49:08;;;;;;;1.63;1.52;;;;;;;;;;5075842;28;20032;-77
2023/07/29 13:51:34;;;;;;;3.30;1.83;;;;;;;;;;5068386;28;20102;-75
2023/07/29 13:54:00;;;;;;;2.42;1.73;;;;;;;;;;5068554;28;20023;-75
2023/07/29 13:56:26;;;;;;;1.95;1.60;;;;;;;;;;5071190;28;20078;-75
2023/07/29 13:58:52;;;;;;;2.08;1.88;;;;;;;;;;5067290;28;20032;-75
2023/07/29 14:01:18;;;;;;;2.00;1.55;;;;;;;;;;5069839;28;20024;-75
2023/07/29 14:03:44;;;;;;;2.17;1.80;;;;;;;;;;5072295;28;20035;-75
2023/07/29 14:06:10;;;;;;;2.08;1.60;;;;;;;;;;5070912;28;20032;-75
2023/07/29 14:08:36;;;;;;;2.72;1.52;;;;;;;;;;5069082;28;20035;-75
2023/07/29 14:11:02;;;;;;;2.35;1.60;;;;;;;;;;5068965;28;20360;-75
2023/07/29 14:13:28;;;;;;;1.52;1.38;;;;;;;;;;5072948;28;20025;-75
2023/07/29 14:15:54;;;;;;;1.83;1.45;;;;;;;;;;5079349;28;20020;-76
2023/07/29 14:18:20;;;;;;;1.35;1.25;;;;;;;;;;5069038;28;20036;-75
2023/07/29 14:20:46;;;;;;;1.40;1.30;;;;;;;;;;5068112;28;20039;-75
2023/07/29 14:23:12;;;;;;;1.92;1.17;;;;;;;;;;5068026;28;20028;-75
2023/07/29 14:25:38;;;;;;;1.30;1.20;;;;;;;;;;5076124;28;20035;-76
2023/07/29 14:28:04;;;;;;;1.05;1.00;;;;;;;;;;5062998;28;20071;-75
2023/07/29 14:30:30;;;;;;;1.40;1.30;;;;;;;;;;5068810;28;20402;-75
2023/07/29 14:32:56;;;;;;;1.30;1.20;;;;;;;;;;5070096;28;20032;-75
2023/07/29 14:35:24;;;;;;;1.20;0.98;;;;;;;;;;5059668;28;20024;-75
2023/07/29 14:37:50;;;;;;;2.63;1.20;;;;;;;;;;5066059;28;20036;-75
2023/07/29 14:40:16;;;;;;;1.60;0.80;;;;;;;;;;5068349;28;20028;-75